sensor_id;sensor_type;location;lat;lon;timestamp;temperature;humidity
55673;DHT22;41554;45.366;20.400;2022-07-12T00:02:02;409.80;2124.80
55673;DHT22;41554;45.366;20.400;2022-07-12T00:04:28;409.80;2124.80
55673;DHT22;41554;45.366;20.400;2022-07-12T00:06:54;409.80;2124.80
55673;DHT22;41554;45.366;20.400;2022-07-12T00:09:20;409.80;2124.80
55673;DHT22;41554;45.366;20.400;2022-07-12T00:11:46;409.90;2124.80
55673;DHT22;41554;45.366;20.400;2022-07-12T00:14:11;409.90;2124.80
55673;DHT22;41554;45.366;20.400;2022-07-12T00:16:37;409.80;2124.80
55673;DHT22;41554;45.366;20.400;2022-07-12T00:19:03;409.90;2124.80
55673;DHT22;41554;45.366;20.400;2022-07-12T00:21:29;409.80;2124.80
55673;DHT22;41554;45.366;20.400;2022-07-12T00:23:54;409.70;2150.40
55673;DHT22;41554;45.366;20.400;2022-07-12T00:26:20;409.70;2150.40
55673;DHT22;41554;45.366;20.400;2022-07-12T00:28:46;409.60;2150.40
55673;DHT22;41554;45.366;20.400;2022-07-12T00:31:13;409.60;2150.40
55673;DHT22;41554;45.366;20.400;2022-07-12T00:33:38;409.70;2150.40
55673;DHT22;41554;45.366;20.400;2022-07-12T00:36:05;409.70;2176.00
55673;DHT22;41554;45.366;20.400;2022-07-12T00:38:30;409.70;2150.40
55673;DHT22;41554;45.366;20.400;2022-07-12T00:40:56;409.70;2150.40
55673;DHT22;41554;45.366;20.400;2022-07-12T00:43:22;409.70;2176.00
55673;DHT22;41554;45.366;20.400;2022-07-12T00:45:48;409.70;2176.00
55673;DHT22;41554;45.366;20.400;2022-07-12T00:48:15;409.70;2176.00
55673;DHT22;41554;45.366;20.400;2022-07-12T00:50:44;409.80;2176.00
55673;DHT22;41554;45.366;20.400;2022-07-12T00:53:10;409.80;2176.00
55673;DHT22;41554;45.366;20.400;2022-07-12T00:55:35;409.70;2227.20
55673;DHT22;41554;45.366;20.400;2022-07-12T00:58:01;409.70;2227.20
55673;DHT22;41554;45.366;20.400;2022-07-12T01:00:29;409.80;2227.20
55673;DHT22;41554;45.366;20.400;2022-07-12T01:02:56;409.80;2227.20
55673;DHT22;41554;45.366;20.400;2022-07-12T01:05:22;409.90;2252.80
55673;DHT22;41554;45.366;20.400;2022-07-12T01:07:49;409.90;2252.80
55673;DHT22;41554;45.366;20.400;2022-07-12T01:10:16;409.80;2227.20
55673;DHT22;41554;45.366;20.400;2022-07-12T01:12:41;409.80;2227.20
55673;DHT22;41554;45.366;20.400;2022-07-12T01:15:08;409.80;2227.20
55673;DHT22;41554;45.366;20.400;2022-07-12T01:17:35;409.90;2252.80
55673;DHT22;41554;45.366;20.400;2022-07-12T01:20:01;409.90;2252.80
55673;DHT22;41554;45.366;20.400;2022-07-12T01:22:34;409.90;2227.20
55673;DHT22;41554;45.366;20.400;2022-07-12T01:25:01;409.80;2252.80
55673;DHT22;41554;45.366;20.400;2022-07-12T01:27:28;409.80;2227.20
55673;DHT22;41554;45.366;20.400;2022-07-12T01:29:55;409.80;2252.80
55673;DHT22;41554;45.366;20.400;2022-07-12T01:32:21;409.70;2252.80
55673;DHT22;41554;45.366;20.400;2022-07-12T01:34:59;409.60;2252.80
55673;DHT22;41554;45.366;20.400;2022-07-12T01:44:51;409.70;2252.80
55673;DHT22;41554;45.366;20.400;2022-07-12T01:47:18;384.90;2252.80
55673;DHT22;41554;45.366;20.400;2022-07-12T01:49:44;384.90;2278.40
55673;DHT22;41554;45.366;20.400;2022-07-12T01:52:10;384.80;2278.40
55673;DHT22;41554;45.366;20.400;2022-07-12T01:54:36;384.80;2252.80
55673;DHT22;41554;45.366;20.400;2022-07-12T01:57:03;384.80;2304.00
55673;DHT22;41554;45.366;20.400;2022-07-12T02:01:57;384.40;2329.60
55673;DHT22;41554;45.366;20.400;2022-07-12T02:04:23;384.30;2329.60
55673;DHT22;41554;45.366;20.400;2022-07-12T02:06:49;384.20;2329.60
55673;DHT22;41554;45.366;20.400;2022-07-12T02:09:16;384.20;2329.60
55673;DHT22;41554;45.366;20.400;2022-07-12T02:11:43;384.20;2329.60
55673;DHT22;41554;45.366;20.400;2022-07-12T02:14:10;384.20;2329.60
55673;DHT22;41554;45.366;20.400;2022-07-12T02:16:35;384.20;2329.60
55673;DHT22;41554;45.366;20.400;2022-07-12T02:19:01;384.10;2329.60
55673;DHT22;41554;45.366;20.400;2022-07-12T02:21:27;384.10;2329.60
55673;DHT22;41554;45.366;20.400;2022-07-12T02:23:53;384.20;2329.60
55673;DHT22;41554;45.366;20.400;2022-07-12T02:26:19;384.10;2329.60
55673;DHT22;41554;45.366;20.400;2022-07-12T02:28:45;384.10;2329.60
55673;DHT22;41554;45.366;20.400;2022-07-12T02:31:11;384.20;2329.60
55673;DHT22;41554;45.366;20.400;2022-07-12T02:33:37;384.20;2329.60
55673;DHT22;41554;45.366;20.400;2022-07-12T02:36:03;384.20;2329.60
55673;DHT22;41554;45.366;20.400;2022-07-12T02:38:29;384.30;2329.60
55673;DHT22;41554;45.366;20.400;2022-07-12T02:40:55;384.20;2329.60
55673;DHT22;41554;45.366;20.400;2022-07-12T02:43:22;384.20;2329.60
55673;DHT22;41554;45.366;20.400;2022-07-12T02:45:49;384.20;2329.60
55673;DHT22;41554;45.366;20.400;2022-07-12T02:48:15;384.20;2329.60
55673;DHT22;41554;45.366;20.400;2022-07-12T02:50:41;384.20;2329.60
55673;DHT22;41554;45.366;20.400;2022-07-12T02:53:08;384.10;2329.60
55673;DHT22;41554;45.366;20.400;2022-07-12T02:55:34;384.00;2329.60
55673;DHT22;41554;45.366;20.400;2022-07-12T02:58:00;359.20;2329.60
55673;DHT22;41554;45.366;20.400;2022-07-12T03:00:26;359.20;2329.60
55673;DHT22;41554;45.366;20.400;2022-07-12T03:02:52;359.20;2329.60
55673;DHT22;41554;45.366;20.400;2022-07-12T03:05:18;359.10;2329.60
55673;DHT22;41554;45.366;20.400;2022-07-12T03:07:44;359.00;2329.60
55673;DHT22;41554;45.366;20.400;2022-07-12T03:10:09;359.00;2329.60
55673;DHT22;41554;45.366;20.400;2022-07-12T03:12:36;359.00;2329.60
55673;DHT22;41554;45.366;20.400;2022-07-12T03:15:03;359.00;2329.60
55673;DHT22;41554;45.366;20.400;2022-07-12T03:17:29;359.00;2329.60
55673;DHT22;41554;45.366;20.400;2022-07-12T03:19:54;359.00;2329.60
55673;DHT22;41554;45.366;20.400;2022-07-12T03:22:20;359.10;2329.60
55673;DHT22;41554;45.366;20.400;2022-07-12T03:24:46;359.10;2329.60
55673;DHT22;41554;45.366;20.400;2022-07-12T03:27:11;359.20;2329.60
55673;DHT22;41554;45.366;20.400;2022-07-12T03:29:38;359.20;2329.60
55673;DHT22;41554;45.366;20.400;2022-07-12T03:32:05;359.20;2329.60
55673;DHT22;41554;45.366;20.400;2022-07-12T03:34:32;359.20;2329.60
55673;DHT22;41554;45.366;20.400;2022-07-12T03:36:57;359.20;2329.60
55673;DHT22;41554;45.366;20.400;2022-07-12T03:39:24;359.10;2329.60
55673;DHT22;41554;45.366;20.400;2022-07-12T04:57:37;410.30;2355.20
55673;DHT22;41554;45.366;20.400;2022-07-12T05:00:06;410.10;2355.20
55673;DHT22;41554;45.366;20.400;2022-07-12T05:02:33;409.90;2355.20
55673;DHT22;41554;45.366;20.400;2022-07-12T05:04:59;410.00;2355.20
55673;DHT22;41554;45.366;20.400;2022-07-12T05:07:25;410.30;2355.20
55673;DHT22;41554;45.366;20.400;2022-07-12T05:09:51;410.30;2355.20
55673;DHT22;41554;45.366;20.400;2022-07-12T05:12:17;410.50;2355.20
55673;DHT22;41554;45.366;20.400;2022-07-12T05:14:43;435.20;2355.20
55673;DHT22;41554;45.366;20.400;2022-07-12T05:17:09;435.30;2355.20
55673;DHT22;41554;45.366;20.400;2022-07-12T05:19:35;435.40;2329.60
55673;DHT22;41554;45.366;20.400;2022-07-12T05:46:22;461.20;2201.60
55673;DHT22;41554;45.366;20.400;2022-07-12T05:48:48;461.10;2227.20
55673;DHT22;41554;45.366;20.400;2022-07-12T06:42:49;512.70;2022.40
55673;DHT22;41554;45.366;20.400;2022-07-12T06:45:16;512.40;1996.80
55673;DHT22;41554;45.366;20.400;2022-07-12T06:47:41;512.60;1920.00
55673;DHT22;41554;45.366;20.400;2022-07-12T06:50:07;512.80;1920.00
55673;DHT22;41554;45.366;20.400;2022-07-12T11:38:37;640.80;1254.40
55673;DHT22;41554;45.366;20.400;2022-07-12T11:41:04;640.80;1254.40
55673;DHT22;41554;45.366;20.400;2022-07-12T11:43:31;640.80;1228.80
55673;DHT22;41554;45.366;20.400;2022-07-12T11:45:57;640.80;1228.80
55673;DHT22;41554;45.366;20.400;2022-07-12T11:48:24;640.70;1203.20
55673;DHT22;41554;45.366;20.400;2022-07-12T11:50:53;640.80;1203.20
55673;DHT22;41554;45.366;20.400;2022-07-12T11:53:25;640.80;1177.60
55673;DHT22;41554;45.366;20.400;2022-07-12T11:55:55;640.70;1177.60
55673;DHT22;41554;45.366;20.400;2022-07-12T11:58:24;640.60;1203.20
55673;DHT22;41554;45.366;20.400;2022-07-12T12:00:51;640.50;1203.20
55673;DHT22;41554;45.366;20.400;2022-07-12T12:03:18;640.40;1228.80
55673;DHT22;41554;45.366;20.400;2022-07-12T12:05:47;640.40;1228.80
55673;DHT22;41554;45.366;20.400;2022-07-12T12:08:14;640.40;1254.40
55673;DHT22;41554;45.366;20.400;2022-07-12T12:10:41;640.40;1228.80
55673;DHT22;41554;45.366;20.400;2022-07-12T12:13:14;640.50;1228.80
55673;DHT22;41554;45.366;20.400;2022-07-12T12:15:48;640.60;1254.40
55673;DHT22;41554;45.366;20.400;2022-07-12T12:18:15;640.60;1228.80
55673;DHT22;41554;45.366;20.400;2022-07-12T12:20:41;640.60;1203.20
55673;DHT22;41554;45.366;20.400;2022-07-12T12:23:18;640.60;1228.80
55673;DHT22;41554;45.366;20.400;2022-07-12T12:25:45;640.10;1228.80
55673;DHT22;41554;45.366;20.400;2022-07-12T12:28:14;640.40;1228.80
55673;DHT22;41554;45.366;20.400;2022-07-12T12:30:52;640.40;1203.20
55673;DHT22;41554;45.366;20.400;2022-07-12T12:33:56;640.30;1203.20
55673;DHT22;41554;45.366;20.400;2022-07-12T12:36:26;640.20;1254.40
55673;DHT22;41554;45.366;20.400;2022-07-12T12:39:01;640.20;1254.40
55673;DHT22;41554;45.366;20.400;2022-07-12T12:41:28;640.10;1280.00
55673;DHT22;41554;45.366;20.400;2022-07-12T12:44:00;640.00;1254.40
55673;DHT22;41554;45.366;20.400;2022-07-12T12:46:54;640.00;1254.40
55673;DHT22;41554;45.366;20.400;2022-07-12T12:49:50;640.10;1280.00
55673;DHT22;41554;45.366;20.400;2022-07-12T12:52:19;640.00;1280.00
55673;DHT22;41554;45.366;20.400;2022-07-12T12:54:45;640.00;1280.00
55673;DHT22;41554;45.366;20.400;2022-07-12T12:57:11;640.00;1254.40
55673;DHT22;41554;45.366;20.400;2022-07-12T12:59:37;615.30;1280.00
55673;DHT22;41554;45.366;20.400;2022-07-12T13:02:05;615.30;1280.00
55673;DHT22;41554;45.366;20.400;2022-07-12T13:04:33;615.30;1280.00
55673;DHT22;41554;45.366;20.400;2022-07-12T13:06:59;615.30;1254.40
55673;DHT22;41554;45.366;20.400;2022-07-12T13:09:27;615.30;1254.40
55673;DHT22;41554;45.366;20.400;2022-07-12T13:11:54;640.20;1254.40
55673;DHT22;41554;45.366;20.400;2022-07-12T13:14:20;640.50;1254.40
55673;DHT22;41554;45.366;20.400;2022-07-12T13:16:45;640.70;1228.80
55673;DHT22;41554;45.366;20.400;2022-07-12T13:19:11;640.70;1228.80
55673;DHT22;41554;45.366;20.400;2022-07-12T13:21:37;640.70;1203.20
55673;DHT22;41554;45.366;20.400;2022-07-12T13:24:03;640.60;1203.20
55673;DHT22;41554;45.366;20.400;2022-07-12T13:26:30;640.50;1203.20
55673;DHT22;41554;45.366;20.400;2022-07-12T13:28:56;640.40;1203.20
55673;DHT22;41554;45.366;20.400;2022-07-12T13:31:22;640.40;1203.20
55673;DHT22;41554;45.366;20.400;2022-07-12T13:33:47;640.30;1228.80
55673;DHT22;41554;45.366;20.400;2022-07-12T13:36:13;640.30;1228.80
55673;DHT22;41554;45.366;20.400;2022-07-12T13:38:39;640.20;1228.80
55673;DHT22;41554;45.366;20.400;2022-07-12T13:41:06;640.20;1228.80
55673;DHT22;41554;45.366;20.400;2022-07-12T13:43:32;640.20;1254.40
55673;DHT22;41554;45.366;20.400;2022-07-12T13:45:58;640.10;1228.80
55673;DHT22;41554;45.366;20.400;2022-07-12T13:48:24;640.10;1254.40
55673;DHT22;41554;45.366;20.400;2022-07-12T13:50:49;640.00;1254.40
55673;DHT22;41554;45.366;20.400;2022-07-12T13:53:15;640.00;1228.80
55673;DHT22;41554;45.366;20.400;2022-07-12T13:55:42;615.30;1228.80
55673;DHT22;41554;45.366;20.400;2022-07-12T13:58:09;615.30;1228.80
55673;DHT22;41554;45.366;20.400;2022-07-12T14:00:35;615.20;1254.40
55673;DHT22;41554;45.366;20.400;2022-07-12T14:03:01;615.20;1254.40
55673;DHT22;41554;45.366;20.400;2022-07-12T18:27:34;589.30;1356.80
55673;DHT22;41554;45.366;20.400;2022-07-12T18:30:00;589.20;1382.40
55673;DHT22;41554;45.366;20.400;2022-07-12T18:32:26;589.10;1382.40
55673;DHT22;41554;45.366;20.400;2022-07-12T18:34:51;589.10;1408.00
55673;DHT22;41554;45.366;20.400;2022-07-12T18:37:17;589.00;1408.00
55673;DHT22;41554;45.366;20.400;2022-07-12T18:39:43;589.00;1408.00
55673;DHT22;41554;45.366;20.400;2022-07-12T18:42:09;589.00;1433.60
55673;DHT22;41554;45.366;20.400;2022-07-12T18:44:36;588.90;1433.60
55673;DHT22;41554;45.366;20.400;2022-07-12T18:47:02;588.90;1433.60
55673;DHT22;41554;45.366;20.400;2022-07-12T18:49:28;588.80;1459.20
55673;DHT22;41554;45.366;20.400;2022-07-12T18:51:53;588.80;1459.20
55673;DHT22;41554;45.366;20.400;2022-07-12T19:43:02;563.60;1612.80
55673;DHT22;41554;45.366;20.400;2022-07-12T19:45:28;563.30;1612.80
55673;DHT22;41554;45.366;20.400;2022-07-12T19:47:54;563.30;1638.40
55673;DHT22;41554;45.366;20.400;2022-07-12T19:50:20;563.20;1664.00
55673;DHT22;41554;45.366;20.400;2022-07-12T20:22:05;512.60;1740.80
55673;DHT22;41554;45.366;20.400;2022-07-12T20:24:30;512.50;1740.80
55673;DHT22;41554;45.366;20.400;2022-07-12T21:57:21;461.10;2048.00
55673;DHT22;41554;45.366;20.400;2022-07-12T21:59:49;461.00;2150.40
55673;DHT22;41554;45.366;20.400;2022-07-12T22:02:15;461.00;2073.60
55673;DHT22;41554;45.366;20.400;2022-07-12T22:04:40;461.00;2073.60
55673;DHT22;41554;45.366;20.400;2022-07-12T22:07:07;461.00;2073.60
55673;DHT22;41554;45.366;20.400;2022-07-12T22:09:33;461.00;2073.60
55673;DHT22;41554;45.366;20.400;2022-07-12T22:11:59;461.00;2073.60
55673;DHT22;41554;45.366;20.400;2022-07-12T22:14:25;461.00;2073.60
55673;DHT22;41554;45.366;20.400;2022-07-12T22:16:51;461.00;2099.20
55673;DHT22;41554;45.366;20.400;2022-07-12T22:19:17;461.10;2073.60
55673;DHT22;41554;45.366;20.400;2022-07-12T22:21:43;461.00;2099.20
55673;DHT22;41554;45.366;20.400;2022-07-12T22:24:11;461.00;2099.20
55673;DHT22;41554;45.366;20.400;2022-07-12T22:26:37;461.00;2099.20
55673;DHT22;41554;45.366;20.400;2022-07-12T22:29:03;461.10;2099.20
55673;DHT22;41554;45.366;20.400;2022-07-12T22:31:29;461.10;2099.20
55673;DHT22;41554;45.366;20.400;2022-07-12T22:33:54;461.10;2099.20
55673;DHT22;41554;45.366;20.400;2022-07-12T22:36:20;461.10;2124.80
55673;DHT22;41554;45.366;20.400;2022-07-12T22:38:46;461.10;2124.80
55673;DHT22;41554;45.366;20.400;2022-07-12T22:41:12;461.00;2124.80
55673;DHT22;41554;45.366;20.400;2022-07-12T22:43:37;461.00;2150.40
55673;DHT22;41554;45.366;20.400;2022-07-12T22:46:03;461.00;2150.40
55673;DHT22;41554;45.366;20.400;2022-07-12T22:48:29;461.00;2150.40
55673;DHT22;41554;45.366;20.400;2022-07-12T22:50:55;461.00;2150.40
55673;DHT22;41554;45.366;20.400;2022-07-12T22:53:39;461.00;2150.40
55673;DHT22;41554;45.366;20.400;2022-07-12T22:56:06;461.00;2150.40
55673;DHT22;41554;45.366;20.400;2022-07-12T22:58:32;461.10;2150.40
55673;DHT22;41554;45.366;20.400;2022-07-12T23:00:58;461.10;2150.40
55673;DHT22;41554;45.366;20.400;2022-07-12T23:03:23;461.10;2150.40
55673;DHT22;41554;45.366;20.400;2022-07-12T23:05:49;461.10;2150.40
55673;DHT22;41554;45.366;20.400;2022-07-12T23:08:15;461.30;2150.40
55673;DHT22;41554;45.366;20.400;2022-07-12T23:10:40;461.30;2150.40
55673;DHT22;41554;45.366;20.400;2022-07-12T23:13:06;461.30;2124.80
55673;DHT22;41554;45.366;20.400;2022-07-12T23:15:32;461.30;2124.80
55673;DHT22;41554;45.366;20.400;2022-07-12T23:17:58;461.40;2124.80
55673;DHT22;41554;45.366;20.400;2022-07-12T23:20:23;461.30;2124.80
55673;DHT22;41554;45.366;20.400;2022-07-12T23:22:49;461.30;2150.40
55673;DHT22;41554;45.366;20.400;2022-07-12T23:25:15;461.20;2150.40
55673;DHT22;41554;45.366;20.400;2022-07-12T23:27:40;461.10;2176.00
55673;DHT22;41554;45.366;20.400;2022-07-12T23:30:07;461.10;2176.00
55673;DHT22;41554;45.366;20.400;2022-07-12T23:32:32;461.00;2201.60
55673;DHT22;41554;45.366;20.400;2022-07-12T23:34:58;461.00;2201.60
55673;DHT22;41554;45.366;20.400;2022-07-12T23:37:24;460.90;2227.20
55673;DHT22;41554;45.366;20.400;2022-07-12T23:39:50;460.80;2227.20
55673;DHT22;41554;45.366;20.400;2022-07-12T23:42:15;436.10;2201.60
55673;DHT22;41554;45.366;20.400;2022-07-12T23:44:41;436.10;2227.20
55673;DHT22;41554;45.366;20.400;2022-07-12T23:47:07;436.00;2252.80
55673;DHT22;41554;45.366;20.400;2022-07-12T23:49:33;435.80;2252.80
55673;DHT22;41554;45.366;20.400;2022-07-12T23:51:59;435.70;2278.40
55673;DHT22;41554;45.366;20.400;2022-07-12T23:54:25;435.50;2304.00
55673;DHT22;41554;45.366;20.400;2022-07-12T23:56:53;435.50;2329.60
55673;DHT22;41554;45.366;20.400;2022-07-12T23:59:19;435.50;2329.60
